Terminal Aerodrome Forecast
Issued by NWS North Platte, NE

Home | Current Version | Previous Version | Graphics & Text | Print | Product List | Glossary On
Versions: 1 2 3 4 5 6 7 8 9 10 11 12 13 14 15 16 17 18
000
FTUS43 KLBF 200252 AAA
TAFVTN
TAF AMD
KVTN 200252Z 2003/2024 36010KT 3/4SM -SN BKN012 BKN021 OVC027
     FM200600 01009KT 3/4SM -SN OVC025
     FM200900 34009KT 2SM -SN OVC030
     FM201100 33010KT P6SM VCSH OVC030
     FM201300 32010KT P6SM BKN040
     FM201800 32012G21KT P6SM BKN040
     FM202200 32010KT P6SM SCT130=

USA.gov is the U.S. government's official web portal to all federal, state and local government web resources and services.